createdAt,value
2022-12-31T00:01:45.100Z,82.79
2022-12-31T00:04:11.662Z,83.17
2022-12-31T00:06:38.321Z,83.52
2022-12-31T00:09:07.031Z,83.47
2022-12-31T00:11:35.185Z,84.05
2022-12-31T00:14:01.848Z,83.06
2022-12-31T00:16:32.512Z,83.03
2022-12-31T00:19:00.788Z,82.71
2022-12-31T00:21:29.843Z,83.41
2022-12-31T00:23:56.859Z,83.11
2022-12-31T00:26:25.703Z,82.34
2022-12-31T00:28:54.673Z,83.14
2022-12-31T00:31:23.974Z,83.13
2022-12-31T00:33:50.668Z,82.38
2022-12-31T00:36:23.225Z,82.50
2022-12-31T00:38:52.030Z,81.01
2022-12-31T00:41:19.868Z,81.66
2022-12-31T00:43:47.177Z,82.06
2022-12-31T00:46:14.473Z,81.71
2022-12-31T00:48:41.746Z,82.31
2022-12-31T00:51:11.207Z,81.12
2022-12-31T00:53:38.307Z,81.94
2022-12-31T00:56:14.279Z,81.90
2022-12-31T00:58:42.160Z,83.24
2022-12-31T01:01:15.140Z,82.50
2022-12-31T01:03:42.448Z,83.94
2022-12-31T01:06:09.535Z,83.03
2022-12-31T01:08:36.182Z,83.80
2022-12-31T01:11:21.855Z,83.16
2022-12-31T01:13:52.937Z,83.83
2022-12-31T01:16:25.823Z,83.65
2022-12-31T01:18:53.374Z,83.50
2022-12-31T01:21:21.246Z,84.08
2022-12-31T01:23:48.256Z,83.97
2022-12-31T01:26:16.153Z,83.24
2022-12-31T01:28:42.807Z,83.69
2022-12-31T01:31:15.695Z,84.06
2022-12-31T01:33:43.404Z,83.63
2022-12-31T01:36:25.346Z,83.27
2022-12-31T01:38:54.258Z,83.35
2022-12-31T01:41:24.240Z,83.61
2022-12-31T01:43:56.207Z,84.39
2022-12-31T01:46:44.282Z,83.78
2022-12-31T01:49:28.101Z,83.86
2022-12-31T01:52:00.312Z,83.18
2022-12-31T01:54:29.753Z,83.46
2022-12-31T01:56:56.977Z,82.97
2022-12-31T01:59:27.014Z,83.73
2022-12-31T02:01:54.586Z,82.86
2022-12-31T02:04:23.974Z,82.49
2022-12-31T02:06:55.318Z,82.10
2022-12-31T02:09:21.990Z,81.93
2022-12-31T02:11:48.839Z,81.74
2022-12-31T02:14:20.707Z,82.46
2022-12-31T02:17:22.297Z,82.16
2022-12-31T02:19:54.857Z,81.17
2022-12-31T02:22:41.336Z,81.67
2022-12-31T02:25:47.246Z,81.68
2022-12-31T02:28:55.253Z,81.81
2022-12-31T02:31:31.302Z,82.19
2022-12-31T02:34:18.676Z,82.45
2022-12-31T02:36:50.094Z,82.04
2022-12-31T02:39:17.304Z,81.89
2022-12-31T02:41:51.210Z,81.85
2022-12-31T02:44:28.289Z,82.06
2022-12-31T02:47:13.449Z,81.98
2022-12-31T02:50:22.483Z,82.08
2022-12-31T02:53:12.947Z,82.37
2022-12-31T02:55:46.108Z,82.45
2022-12-31T02:58:56.592Z,82.41
2022-12-31T03:01:57.996Z,82.05
2022-12-31T03:04:32.372Z,82.26
2022-12-31T03:07:07.756Z,82.09
2022-12-31T03:09:35.892Z,81.96
2022-12-31T03:12:22.967Z,81.95
2022-12-31T03:14:49.972Z,81.67
2022-12-31T03:17:16.902Z,81.32
2022-12-31T03:20:03.110Z,81.08
2022-12-31T03:22:30.102Z,80.74
2022-12-31T03:25:34.215Z,80.91
2022-12-31T03:28:03.244Z,81.60
2022-12-31T03:30:30.971Z,82.22
2022-12-31T03:32:58.283Z,82.76
2022-12-31T03:35:26.885Z,82.21
2022-12-31T03:37:53.877Z,81.71
2022-12-31T03:40:22.247Z,81.83
2022-12-31T03:42:48.932Z,81.14
2022-12-31T03:45:15.857Z,81.13
2022-12-31T03:47:43.216Z,80.84
2022-12-31T03:50:12.599Z,81.70
2022-12-31T03:52:39.693Z,81.92
2022-12-31T03:55:07.580Z,81.60
2022-12-31T03:57:34.247Z,81.56
2022-12-31T04:00:00.870Z,81.60
2022-12-31T04:02:29.195Z,81.60
2022-12-31T04:04:56.201Z,81.97
2022-12-31T04:07:23.299Z,82.62
2022-12-31T04:09:50.128Z,82.29
2022-12-31T04:12:17.072Z,81.59
2022-12-31T04:14:43.649Z,81.31
2022-12-31T04:17:10.236Z,81.33
2022-12-31T04:19:37.668Z,81.83
2022-12-31T04:22:04.979Z,81.63
2022-12-31T04:24:31.567Z,81.17
2022-12-31T04:27:02.208Z,81.22
2022-12-31T04:29:34.165Z,81.39
2022-12-31T04:32:01.816Z,80.31
2022-12-31T04:34:28.533Z,81.23
2022-12-31T04:36:55.201Z,80.53
2022-12-31T04:39:21.923Z,81.46
2022-12-31T04:41:49.604Z,81.18
2022-12-31T04:44:17.038Z,81.50
2022-12-31T04:46:43.829Z,80.85
2022-12-31T04:49:10.584Z,81.32
2022-12-31T04:51:37.683Z,81.32
2022-12-31T04:54:04.504Z,81.47
2022-12-31T04:56:32.320Z,81.80
2022-12-31T04:58:59.025Z,81.52
2022-12-31T05:01:25.628Z,82.06
2022-12-31T05:03:52.340Z,81.13
2022-12-31T05:06:21.747Z,82.21
2022-12-31T05:08:49.250Z,82.15
2022-12-31T05:11:16.829Z,82.94
2022-12-31T05:13:44.020Z,81.65
2022-12-31T05:16:10.764Z,81.42
2022-12-31T05:18:37.577Z,82.19
2022-12-31T05:21:04.477Z,81.39
2022-12-31T05:23:31.094Z,80.84
2022-12-31T05:25:59.700Z,82.11
2022-12-31T05:28:26.620Z,80.94
2022-12-31T05:30:53.365Z,81.90
2022-12-31T05:33:20.677Z,80.32
2022-12-31T05:35:47.350Z,81.34
2022-12-31T05:38:14.069Z,80.81
2022-12-31T05:40:40.664Z,81.41
2022-12-31T05:43:07.809Z,80.96
2022-12-31T05:45:34.425Z,81.27
2022-12-31T05:48:01.200Z,80.26
2022-12-31T05:50:27.878Z,80.15
2022-12-31T05:52:56.224Z,79.89
2022-12-31T05:55:23.170Z,80.08
2022-12-31T05:57:49.879Z,80.47
2022-12-31T06:00:16.950Z,80.08
2022-12-31T06:02:45.219Z,79.86
2022-12-31T06:05:12.300Z,80.61
2022-12-31T06:07:39.055Z,80.21
2022-12-31T06:10:06.281Z,79.92
2022-12-31T06:12:32.953Z,79.77
2022-12-31T06:14:59.671Z,79.63
2022-12-31T06:17:26.404Z,79.62
2022-12-31T06:19:53.028Z,79.75
2022-12-31T06:22:19.618Z,79.14
2022-12-31T06:24:46.694Z,79.31
2022-12-31T06:27:13.368Z,80.00
2022-12-31T06:29:40.036Z,79.28
2022-12-31T06:32:06.922Z,80.01
2022-12-31T06:34:33.515Z,79.89
2022-12-31T06:37:00.129Z,79.69
2022-12-31T06:39:26.967Z,78.52
2022-12-31T06:41:54.138Z,79.54
2022-12-31T06:44:22.432Z,78.90
2022-12-31T06:46:50.703Z,79.14
2022-12-31T06:49:17.496Z,78.35
2022-12-31T06:51:46.186Z,78.76
2022-12-31T06:54:13.615Z,78.51
2022-12-31T06:56:41.404Z,79.69
2022-12-31T06:59:22.856Z,79.31
2022-12-31T07:02:02.086Z,79.00
2022-12-31T07:04:48.584Z,78.83
2022-12-31T07:07:45.533Z,78.88
2022-12-31T07:10:40.166Z,79.12
2022-12-31T07:13:33.027Z,78.77
2022-12-31T07:16:11.050Z,78.74
2022-12-31T07:19:09.545Z,78.37
2022-12-31T07:21:39.857Z,77.82
2022-12-31T07:24:08.765Z,78.13
2022-12-31T07:27:04.354Z,77.65
2022-12-31T07:29:45.926Z,77.82
2022-12-31T07:32:24.731Z,77.95
2022-12-31T07:35:14.958Z,78.19
2022-12-31T07:38:07.494Z,77.38
2022-12-31T07:40:58.242Z,78.45
2022-12-31T07:43:57.710Z,78.45
2022-12-31T07:46:30.301Z,79.48
2022-12-31T07:48:57.216Z,76.93
2022-12-31T07:51:23.974Z,78.44
2022-12-31T07:53:50.624Z,77.46
2022-12-31T07:56:17.398Z,77.92
2022-12-31T07:59:00.650Z,77.31
2022-12-31T08:01:48.045Z,77.06
2022-12-31T08:04:28.044Z,77.53
2022-12-31T08:06:54.735Z,77.45
2022-12-31T08:09:44.800Z,77.07
2022-12-31T08:12:11.556Z,76.87
2022-12-31T08:14:44.892Z,76.23
2022-12-31T08:17:13.663Z,75.72
2022-12-31T08:19:41.068Z,75.42
2022-12-31T08:22:19.520Z,75.70
2022-12-31T08:25:05.348Z,75.19
2022-12-31T08:27:53.967Z,75.55
2022-12-31T08:30:22.082Z,75.32
2022-12-31T08:32:58.055Z,75.33
2022-12-31T08:35:47.496Z,75.00
2022-12-31T08:38:40.933Z,76.00
2022-12-31T08:41:37.610Z,75.89
2022-12-31T08:44:39.441Z,75.47
2022-12-31T08:47:10.791Z,75.51
2022-12-31T08:49:37.688Z,75.72
2022-12-31T08:52:04.565Z,75.56
2022-12-31T08:54:31.495Z,75.61
2022-12-31T08:57:27.491Z,75.14
2022-12-31T09:00:09.599Z,75.98
2022-12-31T09:03:04.203Z,75.90
2022-12-31T09:05:53.255Z,75.47
2022-12-31T09:08:34.230Z,75.34
2022-12-31T09:11:05.344Z,75.92
2022-12-31T09:13:44.871Z,75.43
2022-12-31T09:16:53.335Z,76.46
2022-12-31T09:19:20.122Z,76.46
2022-12-31T09:21:47.031Z,75.57
2022-12-31T09:24:15.326Z,75.84
2022-12-31T09:26:46.873Z,75.30
2022-12-31T09:29:36.801Z,75.07
2022-12-31T09:32:06.188Z,75.65
2022-12-31T09:34:47.024Z,75.15
2022-12-31T09:37:24.709Z,74.30
2022-12-31T09:39:52.242Z,74.80
2022-12-31T09:42:53.674Z,74.87
2022-12-31T09:45:38.801Z,75.86
2022-12-31T09:48:21.236Z,75.15
2022-12-31T09:51:09.485Z,73.81
2022-12-31T09:53:44.198Z,75.29
2022-12-31T09:56:17.328Z,74.53
2022-12-31T09:59:10.309Z,75.07
2022-12-31T10:02:04.898Z,73.70
2022-12-31T10:04:53.135Z,73.40
2022-12-31T10:07:41.181Z,73.98
2022-12-31T10:10:23.615Z,73.42
2022-12-31T10:13:09.369Z,73.21
2022-12-31T10:15:36.153Z,73.98
2022-12-31T10:18:50.680Z,75.13
2022-12-31T10:21:45.222Z,73.60
2022-12-31T10:24:42.359Z,73.60
2022-12-31T10:27:28.485Z,73.62
2022-12-31T10:30:20.483Z,73.99
2022-12-31T10:33:15.477Z,74.03
2022-12-31T10:36:19.666Z,74.04
2022-12-31T10:39:18.979Z,73.77
2022-12-31T10:42:24.848Z,74.27
2022-12-31T10:45:11.847Z,73.93
2022-12-31T10:47:56.649Z,74.59
2022-12-31T10:50:39.635Z,74.32
2022-12-31T10:53:37.648Z,73.51
2022-12-31T10:56:34.765Z,73.90
2022-12-31T10:59:33.776Z,74.08
2022-12-31T11:02:38.352Z,73.28
2022-12-31T11:05:42.541Z,74.48
2022-12-31T11:08:47.003Z,73.67
2022-12-31T11:11:58.575Z,74.39
2022-12-31T11:14:42.601Z,73.79
2022-12-31T11:17:32.377Z,74.75
2022-12-31T11:20:10.704Z,74.10
2022-12-31T11:22:40.290Z,73.87
2022-12-31T11:25:12.964Z,71.90
2022-12-31T11:27:59.479Z,70.26
2022-12-31T11:30:40.985Z,68.17
2022-12-31T11:33:50.310Z,67.97
2022-12-31T11:36:25.197Z,67.41
2022-12-31T11:39:12.943Z,67.52
2022-12-31T11:42:04.816Z,68.44
2022-12-31T11:44:55.333Z,66.53
2022-12-31T11:48:28.437Z,67.43
2022-12-31T11:50:49.412Z,66.56
2022-12-31T11:53:57.474Z,65.38
2022-12-31T11:56:29.861Z,65.48
2022-12-31T11:58:57.416Z,64.91
2022-12-31T12:01:52.153Z,66.07
2022-12-31T12:04:18.887Z,65.56
2022-12-31T12:06:46.038Z,64.84
2022-12-31T12:09:17.118Z,63.92
2022-12-31T12:11:43.775Z,64.18
2022-12-31T12:14:31.687Z,63.83
2022-12-31T12:17:04.879Z,63.74
2022-12-31T12:19:34.305Z,63.08
2022-12-31T12:22:11.619Z,63.74
2022-12-31T12:24:38.355Z,65.01
2022-12-31T12:27:05.110Z,63.16
2022-12-31T12:29:36.966Z,63.63
2022-12-31T12:32:16.411Z,63.52
2022-12-31T12:34:49.428Z,62.57
2022-12-31T12:37:37.000Z,63.25
2022-12-31T12:40:33.748Z,63.00
2022-12-31T12:43:02.029Z,63.29
2022-12-31T12:45:38.280Z,61.96
2022-12-31T12:48:16.599Z,62.29
2022-12-31T12:50:45.790Z,61.78
2022-12-31T12:53:51.024Z,60.80
2022-12-31T12:56:30.626Z,62.01
2022-12-31T12:59:24.750Z,61.97
2022-12-31T13:02:06.846Z,62.35
2022-12-31T13:04:51.851Z,61.28
2022-12-31T13:07:44.646Z,61.77
2022-12-31T13:10:22.452Z,61.53
2022-12-31T13:16:05.154Z,60.12
2022-12-31T13:18:40.784Z,60.39
2022-12-31T13:21:29.341Z,59.14
2022-12-31T13:24:11.618Z,58.73
2022-12-31T13:26:59.960Z,60.95
2022-12-31T13:29:31.422Z,59.19
2022-12-31T13:32:02.373Z,57.94
2022-12-31T13:34:33.771Z,59.05
2022-12-31T13:37:05.584Z,58.98
2022-12-31T13:39:39.638Z,58.17
2022-12-31T13:42:18.343Z,58.01
2022-12-31T13:44:51.728Z,58.40
2022-12-31T13:47:32.404Z,57.05
2022-12-31T13:50:10.951Z,57.90
2022-12-31T13:52:52.969Z,57.06
2022-12-31T13:55:25.472Z,56.92
2022-12-31T13:58:04.982Z,55.68
2022-12-31T14:00:38.512Z,55.74
2022-12-31T14:03:19.632Z,56.54
2022-12-31T14:05:57.761Z,57.52
2022-12-31T14:08:24.647Z,56.49
2022-12-31T14:11:11.476Z,57.92
2022-12-31T14:13:56.880Z,56.68
2022-12-31T14:16:39.336Z,57.44
2022-12-31T14:19:23.720Z,58.36
2022-12-31T14:21:56.827Z,57.03
2022-12-31T14:24:46.868Z,59.48
2022-12-31T14:27:26.639Z,57.39
2022-12-31T14:29:59.262Z,57.99
2022-12-31T14:32:55.648Z,57.38
2022-12-31T14:35:56.861Z,57.57
2022-12-31T14:38:44.207Z,58.12
2022-12-31T14:41:33.881Z,58.25
2022-12-31T14:44:12.741Z,55.50
2022-12-31T14:47:00.589Z,55.41
2022-12-31T14:49:55.473Z,56.97
2022-12-31T14:52:23.735Z,57.41
2022-12-31T14:55:02.153Z,54.40
2022-12-31T14:58:01.500Z,57.51
2022-12-31T15:00:27.071Z,58.31
2022-12-31T15:02:59.911Z,59.24
2022-12-31T15:05:32.636Z,57.62
2022-12-31T15:08:26.715Z,56.35
2022-12-31T15:11:32.083Z,57.29
2022-12-31T15:14:14.087Z,58.03
2022-12-31T15:17:06.098Z,58.20
2022-12-31T15:19:50.639Z,57.08
2022-12-31T15:22:27.191Z,57.36
2022-12-31T15:24:54.351Z,56.04
2022-12-31T15:27:35.739Z,56.61
2022-12-31T15:30:03.854Z,58.43
2022-12-31T15:32:46.074Z,59.00
2022-12-31T15:35:25.684Z,57.43
2022-12-31T15:38:16.833Z,58.06
2022-12-31T15:40:51.950Z,58.46
2022-12-31T15:43:24.896Z,59.50
2022-12-31T15:45:54.244Z,59.31
2022-12-31T15:48:48.948Z,60.41
2022-12-31T15:51:29.909Z,60.62
2022-12-31T15:53:58.335Z,59.73
2022-12-31T15:56:48.726Z,60.28
2022-12-31T15:59:22.490Z,61.37
2022-12-31T16:01:49.860Z,61.62
2022-12-31T16:04:32.641Z,61.67
2022-12-31T16:07:02.638Z,61.55
2022-12-31T16:09:34.181Z,63.76
2022-12-31T16:12:02.296Z,64.45
2022-12-31T16:14:37.138Z,62.69
2022-12-31T16:17:04.161Z,63.03
2022-12-31T16:19:36.652Z,63.84
2022-12-31T16:22:13.581Z,64.40
2022-12-31T16:25:19.434Z,64.53
2022-12-31T16:27:30.499Z,64.91
2022-12-31T16:30:00.872Z,65.19
2022-12-31T16:32:35.114Z,65.64
2022-12-31T16:35:01.944Z,67.59
2022-12-31T16:37:28.653Z,68.37
2022-12-31T16:39:58.312Z,66.77
2022-12-31T16:42:27.077Z,68.34
2022-12-31T16:44:55.554Z,67.98
2022-12-31T16:47:36.086Z,68.29
2022-12-31T16:50:14.364Z,68.86
2022-12-31T16:52:43.597Z,69.22
2022-12-31T16:55:14.410Z,68.74
2022-12-31T16:57:42.694Z,67.91
2022-12-31T17:00:16.592Z,68.10
2022-12-31T17:02:47.628Z,69.50
2022-12-31T17:05:25.833Z,69.11
2022-12-31T17:07:52.977Z,69.84
2022-12-31T17:10:25.277Z,68.68
2022-12-31T17:13:26.954Z,68.21
2022-12-31T17:15:57.399Z,69.71
2022-12-31T17:18:28.707Z,70.69
2022-12-31T17:21:04.232Z,69.75
2022-12-31T17:23:34.207Z,71.04
2022-12-31T17:26:15.381Z,70.47
2022-12-31T17:28:49.109Z,70.85
2022-12-31T17:31:37.757Z,69.52
2022-12-31T17:34:06.365Z,69.76
2022-12-31T17:36:33.084Z,70.39
2022-12-31T17:39:20.970Z,70.70
2022-12-31T17:41:50.966Z,70.46
2022-12-31T17:44:21.484Z,70.80
2022-12-31T17:46:50.288Z,71.33
2022-12-31T17:49:21.781Z,69.68
2022-12-31T17:51:48.598Z,69.64
2022-12-31T17:54:16.665Z,71.73
2022-12-31T17:56:45.915Z,71.43
2022-12-31T17:59:17.932Z,70.65
2022-12-31T18:01:44.763Z,70.98
2022-12-31T18:04:16.565Z,70.48
2022-12-31T18:06:43.781Z,70.61
2022-12-31T18:09:13.053Z,70.03
2022-12-31T18:11:40.745Z,71.50
2022-12-31T18:14:07.393Z,71.13
2022-12-31T18:16:34.233Z,71.24
2022-12-31T18:19:01.375Z,70.47
2022-12-31T18:21:34.397Z,70.82
2022-12-31T18:26:29.523Z,71.96
2022-12-31T18:28:58.166Z,70.66
2022-12-31T18:31:27.893Z,70.65
2022-12-31T18:33:56.876Z,70.56
2022-12-31T18:36:25.768Z,70.84
2022-12-31T18:38:52.985Z,71.21
2022-12-31T18:41:22.485Z,72.49
2022-12-31T18:43:49.708Z,72.61
2022-12-31T18:46:23.344Z,71.39
2022-12-31T18:48:51.280Z,70.92
2022-12-31T18:51:25.132Z,71.80
2022-12-31T18:53:56.358Z,71.72
2022-12-31T18:56:25.066Z,71.96
2022-12-31T18:58:52.211Z,70.71
2022-12-31T19:01:27.135Z,70.82
2022-12-31T19:04:02.135Z,71.60
2022-12-31T19:06:29.494Z,71.04
2022-12-31T19:08:56.363Z,71.96
2022-12-31T19:11:23.637Z,71.80
2022-12-31T19:13:50.627Z,70.90
2022-12-31T19:16:17.992Z,72.03
2022-12-31T19:18:46.159Z,71.37
2022-12-31T19:21:18.456Z,71.37
2022-12-31T19:23:45.851Z,71.74
2022-12-31T19:26:16.344Z,71.20
2022-12-31T19:28:44.136Z,70.87
2022-12-31T19:31:11.275Z,72.02
2022-12-31T19:33:38.474Z,72.54
2022-12-31T19:36:07.375Z,72.22
2022-12-31T19:38:34.356Z,72.29
2022-12-31T19:41:01.852Z,71.28
2022-12-31T19:43:28.489Z,71.00
2022-12-31T19:45:55.387Z,70.98
2022-12-31T19:48:32.058Z,70.68
2022-12-31T19:50:59.863Z,71.68
2022-12-31T19:53:28.038Z,72.57
2022-12-31T19:55:54.777Z,71.01
2022-12-31T19:58:25.528Z,72.06
2022-12-31T20:00:57.050Z,70.65
2022-12-31T20:03:28.028Z,71.23
2022-12-31T20:06:07.482Z,72.22
2022-12-31T20:08:35.029Z,71.50
2022-12-31T20:11:17.314Z,72.12
2022-12-31T20:13:44.802Z,72.08
2022-12-31T20:16:14.587Z,71.82
2022-12-31T20:18:43.016Z,72.11
2022-12-31T20:21:17.907Z,71.13
2022-12-31T20:23:45.459Z,71.61
2022-12-31T20:26:12.430Z,71.14
2022-12-31T20:28:39.184Z,71.92
2022-12-31T20:31:17.551Z,71.86
2022-12-31T20:33:44.797Z,71.72
2022-12-31T20:36:13.866Z,71.50
2022-12-31T20:38:40.853Z,71.89
2022-12-31T20:41:13.124Z,72.55
2022-12-31T20:43:40.165Z,72.50
2022-12-31T20:46:14.524Z,72.68
2022-12-31T20:48:43.842Z,72.26
2022-12-31T20:51:10.680Z,72.72
2022-12-31T20:53:37.338Z,72.50
2022-12-31T20:56:05.501Z,70.09
2022-12-31T20:58:32.534Z,72.77
2022-12-31T21:00:59.471Z,71.43
2022-12-31T21:04:03.244Z,71.41
2022-12-31T21:06:14.179Z,71.86
2022-12-31T21:08:41.277Z,71.66
2022-12-31T21:11:28.750Z,71.91
2022-12-31T21:13:57.099Z,73.20
2022-12-31T21:16:24.972Z,72.11
2022-12-31T21:18:51.787Z,72.07
2022-12-31T21:21:18.884Z,72.72
2022-12-31T21:23:45.578Z,72.75
2022-12-31T21:26:12.324Z,72.33
2022-12-31T21:28:39.121Z,71.24
2022-12-31T21:31:07.991Z,72.30
2022-12-31T21:33:35.216Z,73.17
2022-12-31T21:36:04.685Z,73.63
2022-12-31T21:38:32.082Z,71.49
2022-12-31T21:41:07.236Z,71.26
2022-12-31T21:43:34.044Z,72.00
2022-12-31T21:46:06.094Z,71.55
2022-12-31T21:48:33.625Z,72.21
2022-12-31T21:51:09.918Z,71.83
2022-12-31T21:53:37.504Z,71.77
2022-12-31T21:56:16.105Z,70.49
2022-12-31T21:58:45.810Z,71.20
2022-12-31T22:01:39.680Z,72.26
2022-12-31T22:04:12.929Z,72.33
2022-12-31T22:06:48.945Z,72.10
2022-12-31T22:09:15.656Z,73.70
2022-12-31T22:11:42.444Z,72.17
2022-12-31T22:14:09.627Z,71.91
2022-12-31T22:16:36.771Z,71.89
2022-12-31T22:19:03.541Z,72.72
2022-12-31T22:21:30.310Z,71.91
2022-12-31T22:23:58.891Z,70.68
2022-12-31T22:26:28.991Z,72.04
2022-12-31T22:28:59.814Z,71.50
2022-12-31T22:31:30.206Z,72.06
2022-12-31T22:33:58.201Z,71.27
2022-12-31T22:36:25.031Z,72.58
2022-12-31T22:38:57.227Z,72.64
2022-12-31T22:41:25.669Z,71.96
2022-12-31T22:44:02.628Z,72.47
2022-12-31T22:46:30.812Z,72.61
2022-12-31T22:48:59.203Z,71.64
2022-12-31T22:51:30.507Z,71.70
2022-12-31T22:54:13.570Z,72.39
2022-12-31T22:56:40.455Z,70.93
2022-12-31T22:59:07.165Z,72.22
2022-12-31T23:01:34.563Z,72.19
2022-12-31T23:04:01.372Z,72.33
2022-12-31T23:06:29.030Z,71.65
2022-12-31T23:09:14.517Z,72.02
2022-12-31T23:11:41.233Z,72.51
2022-12-31T23:14:26.749Z,72.51
2022-12-31T23:17:29.486Z,72.60
2022-12-31T23:20:18.279Z,72.19
2022-12-31T23:23:04.569Z,72.06
2022-12-31T23:25:32.951Z,71.59
2022-12-31T23:27:59.574Z,72.21
2022-12-31T23:30:26.233Z,71.26
2022-12-31T23:32:52.918Z,72.05
2022-12-31T23:35:19.821Z,72.15
2022-12-31T23:37:46.471Z,71.61
2022-12-31T23:40:20.677Z,72.00
2022-12-31T23:42:48.729Z,69.88
2022-12-31T23:45:15.595Z,70.08
2022-12-31T23:47:42.233Z,71.14
2022-12-31T23:50:08.976Z,71.66
2022-12-31T23:52:35.660Z,71.34
2022-12-31T23:55:03.628Z,71.69
2022-12-31T23:57:30.617Z,72.09
2022-12-31T23:59:57.299Z,72.07
